Terminal Aerodrome Forecast
Issued by NWS Shreveport, LA

Home | Current Version | Previous Version | Text Only | Print | Product List | Glossary On
Versions: 1 2 3 4 5 6 7 8 9 10 11 12 13 14 15
947
FTUS44 KSHV 262352
TAFGGG
TAF
KGGG 262352Z 2700/2724 20011KT P6SM SCT045
     FM270200 17011KT P6SM BKN045
      TEMPO 2706/2708 BKN025 OVC040
     FM270800 19009KT P6SM SCT007 OVC015
      TEMPO 2709/2711 OVC007
     FM271100 18012KT P6SM OVC007
     FM271600 20012G17KT P6SM BKN015 OVC025
     FM272100 19014G21KT P6SM SCT025 BKN040=

USA.gov is the U.S. government's official web portal to all federal, state and local government web resources and services.